Stations météo

réclame
Mon MeteoGroup
Lekeitio, Espagne (8024): Température de l'air & dewpoint: 13.11.2017 20:00:00 - 19.11.2017 20:00:00 (CET)Lekeitio, Espagne (8024): Vitesse du vent & gusts: 13.11.2017 20:00:00 - 19.11.2017 20:00:00 (CET)Lekeitio, Espagne (8024): Direction du vent: 13.11.2017 20:00:00 - 19.11.2017 20:00:00 (CET)Lekeitio, Espagne (8024): Quantités de précipitations: 13.11.2017 20:00:00 - 19.11.2017 20:00:00 (CET)
Date & Time tt [°C] td [°C] ff [km/h] ff [knt] fx [km/h] fx [knt] dd rr [mm]
19.11.2017 20:00:00 9,3 8,5 10 5 14 7 S 0,0
19.11.2017 19:00:00 9,6 8,8 10 5 13 7 S -
19.11.2017 18:00:00 10,2 9,1 8 4 13 7 SSE 0,0
19.11.2017 17:00:00 11,6 9,5 4 2 10 6 SE 0,0
19.11.2017 16:00:00 13,9 9,9 4 2 17 9 ESE 0,0
19.11.2017 15:00:00 12,9 10,8 9 5 17 9 SE 0,0
19.11.2017 14:00:00 12,5 9,0 6 3 13 7 ESE 0,0
19.11.2017 13:00:00 12,4 10,5 6 4 15 8 ESE -
19.11.2017 12:00:00 11,8 10,2 9 5 14 8 SE 0,0
19.11.2017 11:00:00 10,8 9,6 9 5 14 7 SSE 0,0
19.11.2017 10:00:00 8,9 8,1 10 5 14 7 S 0,0
19.11.2017 09:00:00 7,4 6,7 10 5 18 10 S 0,0
19.11.2017 08:00:00 6,7 6,1 11 6 16 9 S 0,0
19.11.2017 07:00:00 6,9 6,3 10 5 18 10 S -
19.11.2017 06:00:00 6,8 6,2 12 6 16 9 S 0,0
19.11.2017 05:00:00 7,4 6,8 11 6 19 10 S 0,0
19.11.2017 04:00:00 7,4 6,8 13 7 17 9 S 0,0
19.11.2017 03:00:00 8,1 7,5 10 6 16 8 S 0,0
19.11.2017 02:00:00 7,8 7,2 11 6 18 10 S 0,0
19.11.2017 01:00:00 8,4 7,8 13 7 19 10 S -
19.11.2017 00:00:00 8,1 7,5 14 7 18 10 S 0,0
18.11.2017 23:00:00 8,8 8,2 10 5 16 8 S 0,0
18.11.2017 22:00:00 8,9 8,3 9 5 13 7 S 0,0
18.11.2017 21:00:00 9,5 8,9 6 3 10 5 SSE 0,0
18.11.2017 20:00:00 10,3 9,7 2 1 7 4 E 0,0
18.11.2017 19:00:00 10,7 10,1 1 0 8 4 ENE -
18.11.2017 18:00:00 11,4 10,8 3 2 15 8 N 0,0
18.11.2017 17:00:00 11,8 11,2 9 5 14 7 NNW 0,0
18.11.2017 16:00:00 12,4 11,6 4 2 16 9 NE 0,0
18.11.2017 15:00:00 12,3 11,5 8 4 22 12 NNE 0,0
18.11.2017 14:00:00 13,0 12,1 17 9 24 13 NNW 0,0
18.11.2017 13:00:00 13,1 12,2 14 8 21 11 NNW -
18.11.2017 12:00:00 13,1 12,2 14 8 24 13 NNW 0,0
18.11.2017 11:00:00 13,3 12,4 16 8 20 11 NW 0,0
18.11.2017 10:00:00 13,2 12,3 12 6 17 9 W 0,0
18.11.2017 09:00:00 12,6 11,7 9 5 16 9 W 0,0
18.11.2017 08:00:00 11,9 11,1 6 4 16 9 WSW 0,0
18.11.2017 07:00:00 12,4 11,5 10 5 15 8 W -
18.11.2017 06:00:00 10,8 10,0 5 3 13 7 WSW 0,0
18.11.2017 05:00:00 12,4 11,6 8 5 15 8 W 0,0
18.11.2017 04:00:00 11,9 11,0 8 4 16 9 WSW 0,0
18.11.2017 03:00:00 10,1 9,3 6 4 13 7 WSW 0,0
18.11.2017 02:00:00 12,2 11,4 7 4 14 7 W 0,0
18.11.2017 01:00:00 12,4 11,6 8 5 15 8 W -
18.11.2017 00:00:00 12,0 11,1 7 4 13 7 WSW 0,0
17.11.2017 23:00:00 10,1 9,2 2 1 9 5 SW 0,0
17.11.2017 22:00:00 10,2 9,3 4 2 10 5 SW 0,0
17.11.2017 21:00:00 10,6 9,8 6 3 9 5 SW 0,0
17.11.2017 20:00:00 11,8 11,0 3 1 20 11 W 0,0
17.11.2017 19:00:00 13,8 12,9 7 4 16 9 WNW -
17.11.2017 18:00:00 13,6 12,7 9 5 18 10 W 0,0
17.11.2017 17:00:00 13,7 12,6 9 5 16 9 WNW 0,0
17.11.2017 16:00:00 14,4 13,3 12 7 24 13 NW 0,0
17.11.2017 15:00:00 14,0 12,9 12 7 17 9 NW 0,0
17.11.2017 14:00:00 13,8 12,7 9 5 16 9 W 0,0
17.11.2017 13:00:00 13,5 12,2 11 6 16 9 NW -
17.11.2017 12:00:00 13,4 12,1 7 4 11 6 WNW 0,0
17.11.2017 11:00:00 12,8 11,5 0 0 11 6 S 0,0
17.11.2017 10:00:00 10,6 9,5 6 3 11 6 SSW 0,0
17.11.2017 09:00:00 9,4 8,5 6 3 11 6 WSW 0,0
17.11.2017 08:00:00 8,9 8,0 6 3 11 6 SSW 0,0
17.11.2017 07:00:00 8,5 7,7 5 3 10 6 S -
17.11.2017 06:00:00 8,0 7,3 7 4 12 6 SSW 0,0
17.11.2017 05:00:00 8,4 7,6 6 3 11 6 S 0,0
17.11.2017 04:00:00 8,5 7,7 4 2 10 6 SSW 0,0
17.11.2017 03:00:00 8,4 7,6 3 2 10 5 SSW 0,0
17.11.2017 02:00:00 7,8 7,1 7 4 11 6 S 0,0
17.11.2017 01:00:00 8,5 7,9 4 2 9 5 SSW -
17.11.2017 00:00:00 9,3 8,7 6 4 10 5 W 0,0
16.11.2017 23:00:00 8,6 8,0 3 2 8 5 SSW 0,0
16.11.2017 22:00:00 8,7 8,1 3 2 11 6 S 0,0
16.11.2017 21:00:00 9,1 8,5 6 3 13 7 S 0,0
16.11.2017 20:00:00 9,4 8,5 9 5 13 7 S 0,0
16.11.2017 19:00:00 10,4 9,0 10 5 13 7 S -
16.11.2017 18:00:00 10,5 9,6 5 3 9 5 SSE 0,0
16.11.2017 17:00:00 12,4 10,6 7 4 10 5 SE 0,0
16.11.2017 16:00:00 14,5 11,3 3 2 6 3 ESE 0,0
16.11.2017 15:00:00 13,2 10,7 2 1 10 5 NW 0,0
16.11.2017 14:00:00 12,4 10,5 7 4 10 6 NW 0,0
16.11.2017 13:00:00 11,8 9,7 4 2 9 5 NNW -
16.11.2017 12:00:00 11,7 8,9 2 1 6 4 E 0,0
16.11.2017 11:00:00 10,8 8,4 2 1 10 6 W 0,0
16.11.2017 10:00:00 8,7 7,9 9 5 16 9 S 0,0
16.11.2017 09:00:00 7,6 7,0 11 6 16 9 S 0,0
16.11.2017 08:00:00 6,6 6,0 9 5 18 10 S 0,0
16.11.2017 07:00:00 5,9 5,3 9 5 14 7 S -
16.11.2017 06:00:00 6,2 5,6 10 5 18 10 S 0,0
16.11.2017 05:00:00 7,0 6,4 10 5 16 9 S 0,0
16.11.2017 04:00:00 6,6 6,0 10 6 16 9 S 0,0
16.11.2017 03:00:00 6,8 6,2 9 5 16 9 S 0,0
16.11.2017 02:00:00 6,8 6,2 8 4 17 9 S 0,0
16.11.2017 01:00:00 7,2 6,6 13 7 16 9 S -
16.11.2017 00:00:00 7,6 7,0 9 5 13 7 S 0,0
15.11.2017 23:00:00 8,0 7,4 10 6 14 8 S 0,0
15.11.2017 22:00:00 8,0 7,4 10 5 16 9 S 0,0
15.11.2017 21:00:00 8,5 7,9 11 6 15 8 S 0,0
15.11.2017 20:00:00 8,9 8,1 10 6 14 8 S 0,0
15.11.2017 19:00:00 9,3 8,2 6 3 12 7 SE -
15.11.2017 18:00:00 9,4 7,8 8 4 12 7 SSE 0,0
15.11.2017 17:00:00 10,8 8,0 5 3 13 7 ESE 0,0
15.11.2017 16:00:00 12,9 8,2 4 2 15 8 SE 0,0
15.11.2017 15:00:00 11,9 8,4 8 5 16 9 SE 0,0
15.11.2017 14:00:00 11,2 9,1 6 3 15 8 SE 0,0
15.11.2017 13:00:00 11,2 9,5 5 3 18 10 ESE -
15.11.2017 12:00:00 10,6 9,2 10 5 18 10 SE 0,0
15.11.2017 11:00:00 9,8 8,9 10 5 17 9 SSE 0,0
15.11.2017 10:00:00 7,7 7,3 12 6 18 10 S 0,0
15.11.2017 09:00:00 5,9 5,5 13 7 18 10 S 0,0
15.11.2017 08:00:00 5,2 4,9 13 7 18 10 S 0,0
15.11.2017 07:00:00 5,3 5,0 11 6 18 10 S -
15.11.2017 06:00:00 5,5 5,2 12 6 19 10 S 0,0
15.11.2017 05:00:00 5,4 5,0 11 6 15 8 S 0,0
15.11.2017 04:00:00 6,2 5,5 10 6 16 9 S 0,0
15.11.2017 03:00:00 6,2 4,8 11 6 19 10 SSE 0,0
15.11.2017 02:00:00 7,4 5,9 15 8 23 13 S 0,0
15.11.2017 01:00:00 7,5 6,1 17 9 28 15 SSE -
15.11.2017 00:00:00 8,0 6,6 17 9 24 13 SSE 0,0
14.11.2017 23:00:00 8,0 7,1 15 8 21 11 S 0,0
14.11.2017 22:00:00 9,1 7,1 13 7 23 12 S 0,0
14.11.2017 21:00:00 10,9 7,8 5 3 26 14 ENE 0,0
14.11.2017 20:00:00 10,0 7,9 3 2 18 10 ENE 0,0
14.11.2017 19:00:00 9,6 6,5 4 2 18 10 ESE -
14.11.2017 18:00:00 10,1 6,1 4 2 22 12 ENE 0,0
14.11.2017 17:00:00 10,1 5,5 4 2 19 10 E 0,0
14.11.2017 16:00:00 11,3 5,6 3 2 20 11 ENE 0,0
14.11.2017 15:00:00 10,9 5,7 3 2 18 10 ENE 0,0
14.11.2017 14:00:00 11,1 5,9 4 2 18 10 E 0,0
14.11.2017 13:00:00 10,5 6,5 5 3 18 10 E -
14.11.2017 12:00:00 10,5 7,4 14 8 23 13 SE 0,0
14.11.2017 11:00:00 9,9 7,5 14 7 25 13 SE 0,0
14.11.2017 10:00:00 9,0 7,5 14 8 20 11 SSE 0,0
14.11.2017 09:00:00 8,3 6,6 12 6 17 9 S 0,0
14.11.2017 08:00:00 7,6 5,7 12 7 19 10 S 0,0
14.11.2017 07:00:00 8,3 6,3 13 7 19 10 S -
14.11.2017 06:00:00 8,6 6,6 13 7 24 13 SSE 0,0
14.11.2017 05:00:00 8,7 7,0 13 7 18 10 S 0,0
14.11.2017 04:00:00 8,8 6,8 13 7 21 11 S 0,0
14.11.2017 03:00:00 9,1 6,5 16 9 27 14 SSE 0,0
14.11.2017 02:00:00 10,3 7,5 6 3 33 18 ESE 0,0
14.11.2017 01:00:00 10,9 8,5 5 3 29 16 ENE -
14.11.2017 00:00:00 11,5 5,2 17 9 31 17 NNE 0,0
13.11.2017 23:00:00 11,4 4,9 22 12 32 18 N 0,0
13.11.2017 22:00:00 11,5 5,2 20 11 33 18 N 0,0
13.11.2017 21:00:00 11,5 4,5 21 12 38 21 N 0,0
13.11.2017 20:00:00 11,5 5,2 27 14 38 20 N 0,0

tt = Température de l'air
td = dewpoint
ff = Vitesse du vent
fx = gusts
dd = Direction du vent
rr = Quantités de précipitations

stations d'obs. à proximité